createdAt,value
2022-08-07T00:00:54.721Z,99809.05
2022-08-07T00:02:59.810Z,99805.88
2022-08-07T00:05:08.321Z,99806.59
2022-08-07T00:07:13.186Z,99822.30
2022-08-07T00:09:22.749Z,99811.69
2022-08-07T00:11:29.954Z,99806.77
2022-08-07T00:13:40.595Z,99811.10
2022-08-07T00:15:51.183Z,99807.46
2022-08-07T00:17:56.277Z,99806.00
2022-08-07T00:20:03.534Z,99804.16
2022-08-07T00:22:08.417Z,99798.30
2022-08-07T00:24:16.926Z,99805.27
2022-08-07T00:26:48.701Z,99797.46
2022-08-07T00:28:56.747Z,99799.15
2022-08-07T00:31:04.439Z,99804.30
2022-08-07T00:33:11.118Z,99810.34
2022-08-07T00:35:17.664Z,99800.67
2022-08-07T00:37:22.680Z,99801.84
2022-08-07T00:39:27.570Z,99799.62
2022-08-07T00:41:45.267Z,99797.15
2022-08-07T00:44:00.521Z,99800.95
2022-08-07T00:46:07.967Z,99802.86
2022-08-07T00:48:13.411Z,99803.31
2022-08-07T00:50:33.080Z,99813.77
2022-08-07T00:52:47.435Z,99813.14
2022-08-07T00:54:53.877Z,99818.79
2022-08-07T00:56:59.050Z,99819.09
2022-08-07T00:59:05.386Z,99813.06
2022-08-07T01:01:10.357Z,99816.84
2022-08-07T01:03:15.455Z,99812.33
2022-08-07T01:05:24.578Z,99812.60
2022-08-07T01:07:30.935Z,99810.02
2022-08-07T01:10:06.196Z,99811.03
2022-08-07T01:12:09.745Z,99802.90
2022-08-07T01:14:28.320Z,99800.55
2022-08-07T01:16:34.074Z,99798.58
2022-08-07T01:18:40.194Z,99794.49
2022-08-07T01:20:57.292Z,99792.23
2022-08-07T01:23:12.210Z,99794.95
2022-08-07T01:25:54.667Z,99796.77
2022-08-07T01:27:51.310Z,99795.44
2022-08-07T01:29:56.955Z,99796.61
2022-08-07T01:32:05.506Z,99796.64
2022-08-07T01:34:11.882Z,99796.30
2022-08-07T01:36:19.454Z,99797.48
2022-08-07T01:38:40.732Z,99799.91
2022-08-07T01:40:58.270Z,99798.38
2022-08-07T01:43:03.396Z,99802.33
2022-08-07T01:45:17.734Z,99804.30
2022-08-07T01:48:18.893Z,99807.42
2022-08-07T01:49:53.637Z,99805.02
2022-08-07T01:52:04.954Z,99797.83
2022-08-07T01:54:33.200Z,99800.58
2022-08-07T01:56:49.322Z,99799.60
2022-08-07T01:59:03.507Z,99799.05
2022-08-07T02:01:25.437Z,99796.83
2022-08-07T02:03:50.515Z,99797.29
2022-08-07T02:06:02.572Z,99794.64
2022-08-07T02:08:27.496Z,99801.70
2022-08-07T02:10:34.346Z,99801.01
2022-08-07T02:12:43.609Z,99798.79
2022-08-07T02:14:58.398Z,99796.91
2022-08-07T02:17:24.686Z,99800.31
2022-08-07T02:20:04.431Z,99794.55
2022-08-07T02:21:58.784Z,99800.06
2022-08-07T02:24:05.753Z,99791.02
2022-08-07T02:26:32.504Z,99793.56
2022-08-07T02:28:39.587Z,99794.23
2022-08-07T02:30:48.162Z,99795.41
2022-08-07T02:33:00.743Z,99790.98
2022-08-07T02:35:15.152Z,99798.22
2022-08-07T02:37:27.855Z,99798.58
2022-08-07T02:40:02.183Z,99791.66
2022-08-07T02:42:10.170Z,99800.89
2022-08-07T02:44:24.110Z,99785.16
2022-08-07T02:46:34.994Z,99788.08
2022-08-07T02:48:47.190Z,99787.47
2022-08-07T02:51:05.201Z,99791.70
2022-08-07T02:53:15.197Z,99782.30
2022-08-07T02:55:28.314Z,99783.42
2022-08-07T02:57:51.113Z,99779.53
2022-08-07T03:00:01.148Z,99779.46
2022-08-07T03:02:09.804Z,99771.98
2022-08-07T03:04:19.020Z,99772.20
2022-08-07T03:06:25.558Z,99767.36
2022-08-07T03:08:31.642Z,99764.23
2022-08-07T03:10:46.187Z,99760.92
2022-08-07T03:12:52.812Z,99763.48
2022-08-07T03:14:58.478Z,99765.67
2022-08-07T03:17:08.786Z,99767.15
2022-08-07T03:19:14.286Z,99765.47
2022-08-07T03:21:19.858Z,99758.38
2022-08-07T03:23:33.767Z,99757.25
2022-08-07T03:25:58.371Z,99752.98
2022-08-07T03:28:09.481Z,99750.81
2022-08-07T03:30:33.151Z,99748.87
2022-08-07T03:32:49.108Z,99752.77
2022-08-07T03:35:17.836Z,99746.25
2022-08-07T03:37:27.725Z,99743.35
2022-08-07T03:39:46.144Z,99745.69
2022-08-07T03:42:03.643Z,99747.80
2022-08-07T03:44:09.430Z,99746.36
2022-08-07T03:46:18.613Z,99750.19
2022-08-07T03:48:26.781Z,99749.83
2022-08-07T03:50:36.867Z,99747.96
2022-08-07T03:52:42.891Z,99754.13
2022-08-07T03:54:54.783Z,99750.52
2022-08-07T03:57:07.497Z,99747.86
2022-08-07T03:59:13.964Z,99750.34
2022-08-07T04:01:23.300Z,99750.58
2022-08-07T04:03:28.529Z,99751.30
2022-08-07T04:05:53.600Z,99753.58
2022-08-07T04:08:04.292Z,99758.82
2022-08-07T04:10:15.300Z,99762.08
2022-08-07T04:12:27.948Z,99765.94
2022-08-07T04:14:37.750Z,99762.01
2022-08-07T04:16:58.241Z,99763.34
2022-08-07T04:19:12.757Z,99768.64
2022-08-07T04:21:21.465Z,99765.52
2022-08-07T04:23:43.348Z,99765.16
2022-08-07T04:25:54.963Z,99766.70
2022-08-07T04:28:02.752Z,99774.98
2022-08-07T04:30:21.277Z,99774.52
2022-08-07T04:32:40.306Z,99771.05
2022-08-07T04:34:50.957Z,99772.27
2022-08-07T04:36:56.835Z,99774.89
2022-08-07T04:39:02.043Z,99775.42
2022-08-07T04:41:07.679Z,99777.91
2022-08-07T04:43:17.835Z,99776.85
2022-08-07T04:45:57.279Z,99776.92
2022-08-07T04:48:04.688Z,99777.81
2022-08-07T04:50:25.987Z,99773.67
2022-08-07T04:52:56.218Z,99771.61
2022-08-07T04:55:14.864Z,99777.38
2022-08-07T04:58:12.229Z,99774.77
2022-08-07T05:00:30.351Z,99772.44
2022-08-07T05:02:44.694Z,99769.70
2022-08-07T05:05:12.044Z,99776.08
2022-08-07T05:07:48.158Z,99779.03
2022-08-07T05:09:59.279Z,99772.61
2022-08-07T05:12:10.135Z,99779.02
2022-08-07T05:14:52.379Z,99780.36
2022-08-07T05:16:53.880Z,99776.70
2022-08-07T05:19:03.542Z,99777.20
2022-08-07T05:21:14.571Z,99776.96
2022-08-07T05:23:30.939Z,99777.35
2022-08-07T05:26:11.736Z,99782.60
2022-08-07T05:28:20.041Z,99784.02
2022-08-07T05:30:32.401Z,99778.23
2022-08-07T05:32:40.275Z,99782.65
2022-08-07T05:34:47.977Z,99784.58
2022-08-07T05:36:55.823Z,99790.55
2022-08-07T05:40:06.493Z,99793.38
2022-08-07T05:42:00.184Z,99794.79
2022-08-07T05:44:12.000Z,99795.35
2022-08-07T05:46:19.744Z,99793.89
2022-08-07T05:48:31.998Z,99790.48
2022-08-07T05:50:42.706Z,99796.48
2022-08-07T05:52:51.664Z,99793.18
2022-08-07T05:54:58.566Z,99791.95
2022-08-07T05:57:06.261Z,99790.91
2022-08-07T05:59:21.407Z,99795.42
2022-08-07T06:01:35.647Z,99803.88
2022-08-07T06:03:53.455Z,99802.85
2022-08-07T06:06:02.804Z,99791.07
2022-08-07T06:08:30.358Z,99791.52
2022-08-07T06:10:35.464Z,99799.70
2022-08-07T06:12:41.454Z,99797.08
2022-08-07T06:14:49.460Z,99790.65
2022-08-07T06:16:57.149Z,99789.83
2022-08-07T06:19:09.035Z,99792.52
2022-08-07T06:22:15.684Z,99799.63
2022-08-07T06:24:37.730Z,99795.16
2022-08-07T06:26:16.943Z,99795.79
2022-08-07T06:28:27.810Z,99795.33
2022-08-07T06:30:37.175Z,99799.34
2022-08-07T06:32:55.141Z,99806.68
2022-08-07T06:35:01.057Z,99807.42
2022-08-07T06:37:06.117Z,99808.98
2022-08-07T06:40:13.362Z,99806.39
2022-08-07T06:42:01.094Z,99804.23
2022-08-07T06:44:31.096Z,99794.53
2022-08-07T06:46:41.454Z,99793.69
2022-08-07T06:48:48.907Z,99798.40
2022-08-07T06:50:59.759Z,99797.25
2022-08-07T06:53:49.175Z,99804.84
2022-08-07T06:55:53.386Z,99806.41
2022-08-07T06:58:04.249Z,99803.16
2022-08-07T07:00:18.031Z,99811.82
2022-08-07T07:02:27.050Z,99804.42
2022-08-07T07:04:55.144Z,99809.06
2022-08-07T07:07:02.227Z,99805.55
2022-08-07T07:09:20.966Z,99810.70
2022-08-07T07:12:09.009Z,99791.50
2022-08-07T07:14:01.574Z,99796.84
2022-08-07T07:16:13.940Z,99794.23
2022-08-07T07:18:47.487Z,99787.27
2022-08-07T07:20:56.498Z,99795.84
2022-08-07T07:24:08.689Z,99792.98
2022-08-07T07:26:33.964Z,99791.24
2022-08-07T07:28:02.587Z,99793.71
2022-08-07T07:30:12.155Z,99788.63
2022-08-07T07:32:18.738Z,99788.91
2022-08-07T07:34:30.736Z,99793.85
2022-08-07T07:36:40.363Z,99794.38
2022-08-07T07:38:47.593Z,99802.27
2022-08-07T07:40:57.600Z,99793.59
2022-08-07T07:43:15.193Z,99784.39
2022-08-07T07:46:38.102Z,99784.36
2022-08-07T07:47:54.208Z,99787.21
2022-08-07T07:50:35.015Z,99781.60
2022-08-07T07:52:28.518Z,99796.60
2022-08-07T07:54:35.866Z,99790.95
2022-08-07T07:56:41.579Z,99782.65
2022-08-07T07:58:48.474Z,99786.53
2022-08-07T08:00:56.150Z,99782.16
2022-08-07T08:03:08.406Z,99779.66
2022-08-07T08:05:16.015Z,99789.09
2022-08-07T08:07:22.598Z,99786.13
2022-08-07T08:09:52.158Z,99782.88
2022-08-07T08:12:09.396Z,99780.89
2022-08-07T08:14:21.408Z,99781.06
2022-08-07T08:16:38.826Z,99781.73
2022-08-07T08:18:45.079Z,99787.08
2022-08-07T08:20:55.881Z,99783.10
2022-08-07T08:23:03.689Z,99782.17
2022-08-07T08:25:24.876Z,99790.33
2022-08-07T08:27:44.071Z,99781.23
2022-08-07T08:30:06.419Z,99784.92
2022-08-07T08:32:18.463Z,99782.41
2022-08-07T08:34:29.008Z,99791.66
2022-08-07T08:36:36.806Z,99783.30
2022-08-07T08:38:46.283Z,99782.10
2022-08-07T08:40:58.064Z,99785.73
2022-08-07T08:43:10.904Z,99784.51
2022-08-07T08:45:26.635Z,99779.25
2022-08-07T08:47:56.042Z,99777.14
2022-08-07T08:50:15.125Z,99778.87
2022-08-07T08:52:29.467Z,99774.55
2022-08-07T08:54:45.166Z,99776.72
2022-08-07T08:56:53.409Z,99775.27
2022-08-07T08:59:08.680Z,99771.45
2022-08-07T09:01:29.676Z,99769.05
2022-08-07T09:03:57.751Z,99771.19
2022-08-07T09:06:11.350Z,99773.91
2022-08-07T09:08:31.890Z,99763.38
2022-08-07T09:10:46.956Z,99767.34
2022-08-07T09:13:09.632Z,99766.61
2022-08-07T09:16:24.120Z,99762.89
2022-08-07T09:18:22.619Z,99764.96
2022-08-07T09:20:35.736Z,99759.77
2022-08-07T09:24:35.069Z,99768.13
2022-08-07T09:25:25.140Z,99769.30
2022-08-07T09:28:00.413Z,99763.63
2022-08-07T09:30:10.325Z,99762.46
2022-08-07T09:32:26.405Z,99757.32
2022-08-07T09:34:45.144Z,99758.98
2022-08-07T09:37:04.656Z,99757.42
2022-08-07T09:39:54.568Z,99751.04
2022-08-07T09:42:04.079Z,99746.87
2022-08-07T09:44:46.609Z,99752.53
2022-08-07T09:47:51.688Z,99741.54
2022-08-07T09:50:02.566Z,99739.73
2022-08-07T09:52:34.643Z,99743.99
2022-08-07T09:54:45.434Z,99740.80
2022-08-07T09:57:32.764Z,99741.08
2022-08-07T10:00:02.010Z,99740.60
2022-08-07T10:02:34.695Z,99741.20
2022-08-07T10:05:01.316Z,99729.59
2022-08-07T10:07:52.767Z,99721.38
2022-08-07T10:10:21.414Z,99721.53
2022-08-07T10:12:52.894Z,99719.16
2022-08-07T10:15:19.093Z,99719.92
2022-08-07T10:18:02.541Z,99717.65
2022-08-07T10:20:22.059Z,99717.33
2022-08-07T10:22:51.154Z,99706.77
2022-08-07T10:25:09.475Z,99716.13
2022-08-07T10:27:46.829Z,99706.88
2022-08-07T10:30:06.294Z,99706.23
2022-08-07T10:32:37.101Z,99703.88
2022-08-07T10:35:14.946Z,99690.95
2022-08-07T10:38:00.963Z,99691.36
2022-08-07T10:40:09.171Z,99687.20
2022-08-07T10:42:31.122Z,99686.91
2022-08-07T10:44:50.115Z,99689.08
2022-08-07T10:47:00.749Z,99690.89
2022-08-07T10:49:14.588Z,99689.06
2022-08-07T10:51:57.182Z,99685.48
2022-08-07T10:54:04.339Z,99678.61
2022-08-07T10:56:31.125Z,99681.03
2022-08-07T10:59:01.172Z,99670.87
2022-08-07T11:01:23.726Z,99676.64
2022-08-07T11:03:47.889Z,99669.27
2022-08-07T11:06:08.647Z,99668.52
2022-08-07T11:08:30.159Z,99656.77
2022-08-07T11:10:43.520Z,99658.23
2022-08-07T11:13:02.104Z,99659.59
2022-08-07T11:15:17.287Z,99651.34
2022-08-07T11:17:43.310Z,99659.10
2022-08-07T11:19:55.764Z,99647.23
2022-08-07T11:22:19.195Z,99660.83
2022-08-07T11:24:45.420Z,99642.95
2022-08-07T11:27:00.308Z,99634.49
2022-08-07T11:29:13.352Z,99656.88
2022-08-07T11:31:41.802Z,99639.55
2022-08-07T11:33:59.948Z,99646.81
2022-08-07T11:36:20.473Z,99641.36
2022-08-07T11:38:40.592Z,99642.06
2022-08-07T11:40:56.197Z,99641.73
2022-08-07T11:43:08.358Z,99636.55
2022-08-07T11:45:29.936Z,99631.10
2022-08-07T11:47:59.507Z,99627.63
2022-08-07T11:50:32.437Z,99637.27
2022-08-07T11:52:49.992Z,99634.14
2022-08-07T11:55:18.915Z,99631.55
2022-08-07T11:57:59.443Z,99622.18
2022-08-07T12:00:18.958Z,99621.77
2022-08-07T12:02:52.752Z,99613.79
2022-08-07T12:05:15.378Z,99609.83
2022-08-07T12:07:39.089Z,99615.83
2022-08-07T12:09:54.093Z,99609.37
2022-08-07T12:12:10.576Z,99605.71
2022-08-07T12:14:20.287Z,99610.41
2022-08-07T12:16:30.580Z,99606.42
2022-08-07T12:18:45.534Z,99602.66
2022-08-07T12:21:05.882Z,99606.15
2022-08-07T12:24:05.711Z,99599.36
2022-08-07T12:26:06.070Z,99606.67
2022-08-07T12:28:31.078Z,99603.42
2022-08-07T12:30:40.702Z,99603.36
2022-08-07T12:32:58.614Z,99594.12
2022-08-07T12:35:08.487Z,99601.41
2022-08-07T12:37:16.856Z,99597.69
2022-08-07T12:39:42.263Z,99597.08
2022-08-07T12:41:52.080Z,99591.80
2022-08-07T12:44:03.674Z,99590.28
2022-08-07T12:46:26.653Z,99590.56
2022-08-07T12:48:53.290Z,99582.38
2022-08-07T12:51:17.067Z,99582.82
2022-08-07T12:54:02.861Z,99584.81
2022-08-07T12:56:09.673Z,99584.38
2022-08-07T12:58:22.489Z,99586.95
2022-08-07T13:00:50.107Z,99584.00
2022-08-07T13:03:13.130Z,99584.09
2022-08-07T13:06:03.112Z,99580.07
2022-08-07T13:08:29.336Z,99584.38
2022-08-07T13:10:52.052Z,99578.32
2022-08-07T13:13:10.945Z,99577.02
2022-08-07T13:15:29.522Z,99579.25
2022-08-07T13:17:44.351Z,99582.98
2022-08-07T13:19:54.610Z,99588.39
2022-08-07T13:22:12.753Z,99586.01
2022-08-07T13:24:52.452Z,99580.85
2022-08-07T13:27:05.762Z,99572.97
2022-08-07T13:29:15.301Z,99573.12
2022-08-07T13:31:26.177Z,99568.54
2022-08-07T13:34:34.221Z,99564.14
2022-08-07T13:36:19.466Z,99568.67
2022-08-07T13:38:31.415Z,99566.80
2022-08-07T13:40:43.245Z,99564.16
2022-08-07T13:42:51.305Z,99560.66
2022-08-07T13:46:06.167Z,99560.00
2022-08-07T13:48:05.826Z,99556.34
2022-08-07T13:50:33.009Z,99553.15
2022-08-07T13:52:33.573Z,99546.73
2022-08-07T13:54:49.255Z,99544.59
2022-08-07T13:56:59.863Z,99539.77
2022-08-07T13:59:12.224Z,99534.95
2022-08-07T14:01:20.374Z,99531.98
2022-08-07T14:04:07.730Z,99531.74
2022-08-07T14:05:57.369Z,99534.42
2022-08-07T14:08:04.848Z,99533.56
2022-08-07T14:10:21.651Z,99530.98
2022-08-07T14:12:42.025Z,99530.84
2022-08-07T14:15:00.495Z,99526.47
2022-08-07T14:17:12.980Z,99529.27
2022-08-07T14:20:42.032Z,99520.81
2022-08-07T14:22:11.636Z,99513.84
2022-08-07T14:24:28.030Z,99514.66
2022-08-07T14:26:40.597Z,99501.23
2022-08-07T14:29:01.175Z,99507.67
2022-08-07T14:31:13.849Z,99510.75
2022-08-07T14:33:23.789Z,99508.23
2022-08-07T14:35:43.216Z,99507.41
2022-08-07T14:38:05.602Z,99502.85
2022-08-07T14:40:26.747Z,99499.45
2022-08-07T14:42:35.337Z,99496.48
2022-08-07T14:45:21.598Z,99503.33
2022-08-07T14:47:31.474Z,99495.32
2022-08-07T14:49:58.163Z,99494.00
2022-08-07T14:52:10.268Z,99489.35
2022-08-07T14:54:31.346Z,99491.98
2022-08-07T14:56:43.430Z,99488.13
2022-08-07T14:58:55.061Z,99494.17
2022-08-07T15:01:19.560Z,99496.88
2022-08-07T15:03:51.411Z,99494.55
2022-08-07T15:06:03.922Z,99496.78
2022-08-07T15:08:12.442Z,99491.83
2022-08-07T15:10:26.132Z,99490.08
2022-08-07T15:12:35.957Z,99488.62
2022-08-07T15:17:16.901Z,99488.61
2022-08-07T15:22:03.953Z,99482.88
2022-08-07T15:25:15.511Z,99486.65
2022-08-07T15:26:43.857Z,99490.77
2022-08-07T15:28:59.467Z,99495.79
2022-08-07T15:32:01.675Z,99492.86
2022-08-07T15:33:57.032Z,99492.56
2022-08-07T15:38:51.286Z,99486.17
2022-08-07T15:41:00.341Z,99485.12
2022-08-07T15:43:53.315Z,99484.84
2022-08-07T15:45:57.507Z,99489.21
2022-08-07T15:48:20.252Z,99483.59
2022-08-07T15:51:01.261Z,99487.48
2022-08-07T15:52:58.434Z,99488.78
2022-08-07T15:55:12.153Z,99489.00
2022-08-07T15:57:39.761Z,99486.65
2022-08-07T15:59:50.227Z,99489.73
2022-08-07T16:02:02.167Z,99497.88
2022-08-07T16:04:15.603Z,99499.04
2022-08-07T16:06:28.301Z,99492.42
2022-08-07T16:08:40.776Z,99494.56
2022-08-07T16:10:52.372Z,99492.95
2022-08-07T16:13:39.381Z,99493.53
2022-08-07T16:16:42.772Z,99498.14
2022-08-07T16:18:50.726Z,99495.95
2022-08-07T16:21:44.145Z,99494.23
2022-08-07T16:23:53.572Z,99495.27
2022-08-07T16:26:08.157Z,99496.96
2022-08-07T16:30:08.642Z,99508.55
2022-08-07T16:31:00.264Z,99506.67
2022-08-07T16:34:02.072Z,99509.89
2022-08-07T16:35:59.468Z,99508.31
2022-08-07T16:38:59.902Z,99501.56
2022-08-07T16:41:41.786Z,99501.85
2022-08-07T16:45:04.096Z,99509.14
2022-08-07T16:47:31.412Z,99503.52
2022-08-07T16:50:20.674Z,99495.66
2022-08-07T16:52:55.995Z,99496.83
2022-08-07T16:55:14.892Z,99498.60
2022-08-07T16:58:02.345Z,99497.25
2022-08-07T17:00:10.941Z,99501.69
2022-08-07T17:02:53.486Z,99503.60
2022-08-07T17:06:01.476Z,99503.67
2022-08-07T17:07:55.841Z,99502.86
2022-08-07T17:10:09.187Z,99498.17
2022-08-07T17:12:44.370Z,99492.27
2022-08-07T17:14:56.308Z,99497.60
2022-08-07T17:17:08.470Z,99494.50
2022-08-07T17:20:00.972Z,99492.20
2022-08-07T17:21:59.001Z,99490.64
2022-08-07T17:24:38.639Z,99492.81
2022-08-07T17:26:51.895Z,99496.82
2022-08-07T17:29:07.060Z,99503.27
2022-08-07T17:31:17.902Z,99510.34
2022-08-07T17:33:39.098Z,99519.92
2022-08-07T17:36:02.881Z,99518.40
2022-08-07T17:38:33.898Z,99527.39
2022-08-07T17:40:50.502Z,99532.16
2022-08-07T17:43:02.578Z,99525.55
2022-08-07T17:45:24.273Z,99528.14
2022-08-07T17:47:42.375Z,99528.53
2022-08-07T17:49:54.462Z,99527.97
2022-08-07T17:52:10.624Z,99530.04
2022-08-07T17:54:29.615Z,99533.07
2022-08-07T17:56:52.541Z,99532.05
2022-08-07T17:59:17.161Z,99536.80
2022-08-07T18:01:34.819Z,99539.07
2022-08-07T18:04:03.721Z,99542.67
2022-08-07T18:06:36.622Z,99544.88
2022-08-07T18:09:01.885Z,99548.10
2022-08-07T18:12:17.652Z,99545.05
2022-08-07T18:13:49.777Z,99547.70
2022-08-07T18:16:09.939Z,99543.55
2022-08-07T18:18:47.501Z,99547.61
2022-08-07T18:21:12.801Z,99545.73
2022-08-07T18:23:43.704Z,99547.58
2022-08-07T18:26:03.561Z,99550.86
2022-08-07T18:28:35.566Z,99554.92
2022-08-07T18:30:58.471Z,99555.48
2022-08-07T18:33:55.626Z,99556.84
2022-08-07T18:36:14.668Z,99563.95
2022-08-07T18:38:55.109Z,99567.96
2022-08-07T18:41:09.280Z,99570.10
2022-08-07T18:43:36.701Z,99573.30
2022-08-07T18:46:25.858Z,99576.28
2022-08-07T18:50:04.838Z,99574.02
2022-08-07T18:51:05.758Z,99571.92
2022-08-07T18:53:22.003Z,99569.02
2022-08-07T18:55:56.253Z,99571.02
2022-08-07T18:58:33.605Z,99572.13
2022-08-07T19:00:54.190Z,99573.10
2022-08-07T19:03:12.041Z,99577.11
2022-08-07T19:06:02.065Z,99584.14
2022-08-07T19:07:59.664Z,99590.15
2022-08-07T19:10:21.471Z,99589.13
2022-08-07T19:12:34.599Z,99588.69
2022-08-07T19:14:51.188Z,99590.58
2022-08-07T19:17:08.547Z,99593.25
2022-08-07T19:19:32.040Z,99591.41
2022-08-07T19:21:53.630Z,99594.36
2022-08-07T19:24:09.535Z,99596.06
2022-08-07T19:26:22.809Z,99599.96
2022-08-07T19:30:55.224Z,99601.09
2022-08-07T19:31:41.752Z,99604.20
2022-08-07T19:33:43.342Z,99602.81
2022-08-07T19:36:03.079Z,99601.45
2022-08-07T19:38:16.815Z,99603.91
2022-08-07T19:40:31.238Z,99602.63
2022-08-07T19:42:42.882Z,99599.69
2022-08-07T19:44:49.473Z,99600.48
2022-08-07T19:47:05.466Z,99606.58
2022-08-07T19:49:16.598Z,99603.94
2022-08-07T19:51:51.295Z,99597.89
2022-08-07T19:54:33.256Z,99603.55
2022-08-07T19:58:01.451Z,99609.55
2022-08-07T19:58:52.825Z,99615.82
2022-08-07T20:00:59.722Z,99619.13
2022-08-07T20:03:33.636Z,99619.58
2022-08-07T20:06:00.662Z,99624.02
2022-08-07T20:08:09.213Z,99626.31
2022-08-07T20:10:35.352Z,99625.48
2022-08-07T20:12:43.256Z,99623.50
2022-08-07T20:14:58.649Z,99620.70
2022-08-07T20:17:07.944Z,99618.92
2022-08-07T20:19:13.834Z,99618.17
2022-08-07T20:21:22.101Z,99615.80
2022-08-07T20:23:40.668Z,99614.57
2022-08-07T20:25:51.074Z,99612.98
2022-08-07T20:28:05.763Z,99611.64
2022-08-07T20:30:12.929Z,99614.41
2022-08-07T20:32:39.707Z,99614.61
2022-08-07T20:34:51.181Z,99612.66
2022-08-07T20:36:59.156Z,99613.36
2022-08-07T20:39:11.630Z,99612.80
2022-08-07T20:41:37.969Z,99615.73
2022-08-07T20:43:47.787Z,99614.27
2022-08-07T20:46:28.240Z,99608.19
2022-08-07T20:48:28.295Z,99608.51
2022-08-07T20:50:35.600Z,99610.89
2022-08-07T20:52:51.159Z,99616.73
2022-08-07T20:54:58.005Z,99612.33
2022-08-07T20:57:08.180Z,99609.86
2022-08-07T21:00:04.879Z,99610.41
2022-08-07T21:01:54.897Z,99615.52
2022-08-07T21:04:22.192Z,99620.67
2022-08-07T21:06:31.409Z,99625.64
2022-08-07T21:08:40.725Z,99629.98
2022-08-07T21:10:49.127Z,99634.75
2022-08-07T21:12:57.859Z,99634.21
2022-08-07T21:15:08.249Z,99633.78
2022-08-07T21:18:03.309Z,99636.55
2022-08-07T21:19:51.323Z,99638.35
2022-08-07T21:22:07.876Z,99641.55
2022-08-07T21:24:18.658Z,99638.86
2022-08-07T21:26:34.786Z,99638.52
2022-08-07T21:28:51.131Z,99635.77
2022-08-07T21:31:12.401Z,99630.02
2022-08-07T21:33:22.053Z,99636.40
2022-08-07T21:35:34.513Z,99636.14
2022-08-07T21:38:08.343Z,99637.04
2022-08-07T21:40:20.469Z,99636.02
2022-08-07T21:42:42.802Z,99632.34
2022-08-07T21:44:57.538Z,99637.59
2022-08-07T21:47:12.371Z,99639.59
2022-08-07T21:49:27.063Z,99637.25
2022-08-07T21:51:54.538Z,99637.56
2022-08-07T21:54:18.826Z,99637.12
2022-08-07T21:56:47.844Z,99634.51
2022-08-07T21:59:03.705Z,99633.02
2022-08-07T22:01:28.686Z,99633.27
2022-08-07T22:03:57.509Z,99635.22
2022-08-07T22:06:29.998Z,99629.85
2022-08-07T22:08:37.733Z,99628.61
2022-08-07T22:10:47.981Z,99633.42
2022-08-07T22:12:57.260Z,99633.59
2022-08-07T22:16:43.937Z,99634.63
2022-08-07T22:17:44.183Z,99632.18
2022-08-07T22:20:23.550Z,99630.45
2022-08-07T22:22:36.762Z,99626.66
2022-08-07T22:25:02.911Z,99622.21
2022-08-07T22:27:16.171Z,99623.09
2022-08-07T22:29:37.823Z,99623.30
2022-08-07T22:32:03.453Z,99623.47
2022-08-07T22:34:17.513Z,99628.45
2022-08-07T22:36:42.303Z,99630.37
2022-08-07T22:38:55.301Z,99634.30
2022-08-07T22:41:03.238Z,99633.66
2022-08-07T22:43:16.997Z,99631.25
2022-08-07T22:46:21.655Z,99629.27
2022-08-07T22:48:13.971Z,99627.55
2022-08-07T22:50:46.114Z,99627.08
2022-08-07T22:53:15.254Z,99627.19
2022-08-07T22:55:51.647Z,99622.35
2022-08-07T22:58:10.530Z,99622.02
2022-08-07T23:00:21.451Z,99624.41
2022-08-07T23:02:42.218Z,99626.10
2022-08-07T23:06:07.352Z,99628.40
2022-08-07T23:07:42.191Z,99629.84
2022-08-07T23:10:34.182Z,99623.96
2022-08-07T23:12:39.476Z,99626.23
2022-08-07T23:15:00.036Z,99617.20
2022-08-07T23:17:22.585Z,99621.27
2022-08-07T23:19:51.498Z,99616.27
2022-08-07T23:22:03.319Z,99612.69
2022-08-07T23:24:27.954Z,99615.88
2022-08-07T23:26:50.175Z,99615.05
2022-08-07T23:29:43.918Z,99611.45
2022-08-07T23:34:20.124Z,99613.22
2022-08-07T23:34:44.932Z,99612.38
2022-08-07T23:37:20.257Z,99612.00
2022-08-07T23:39:41.246Z,99614.39
2022-08-07T23:42:04.314Z,99610.79
2022-08-07T23:44:57.579Z,99611.88
2022-08-07T23:47:19.924Z,99614.25
2022-08-07T23:49:58.907Z,99618.94
2022-08-07T23:53:05.300Z,99616.73
2022-08-07T23:54:52.060Z,99617.30
2022-08-07T23:57:09.084Z,99610.33
